Flight Track Log - Related Links

Times and Time Zones

All times are in EST time to prevent confusion due to time zone crossing. See the EJM375 flight status page for this flight to view local times or setup timezone preferences in your user account.

Time Position Orientation Groundspeed Altitude Reporting Facility
EST Latitude Longitude Course Direction KTS MPH feet Rate Location/Type
Thu 08:55:46 PM 33.9333 -118.4333 55° Northeast 176 203 1,800  Level Southern California TRACON
Thu 08:56:57 PM 33.9153 -118.5128 255° West 212 244 4,800 2,842 Climbing Los Angeles Center
Thu 08:57:59 PM 33.8661 -118.5122 179° South 219 252 8,100 2,661 Climbing Los Angeles Center
Thu 08:59:01 PM 33.9067 -118.4533 50° Northeast 256 295 10,300 1,935 Climbing Los Angeles Center
Thu 09:00:03 PM 33.9642 -118.3792 47° Northeast 316 364 12,100 1,839 Climbing Los Angeles Center
Thu 09:01:00 PM 34.2413 -117.6972 55° Northeast  Level Estimated
Thu 09:01:05 PM 34.0192 -118.2825 56° Northeast 342 394 14,100  Level Los Angeles Center
Thu 09:02:07 PM 34.0803 -118.1742 56° Northeast 384 442 16,300 2,177 Climbing Los Angeles Center
Thu 09:03:09 PM 34.1444 -118.0608 56° Northeast 401 461 18,600 2,129 Climbing Los Angeles Center
Thu 09:04:11 PM 34.2103 -117.9444 56° Northeast 413 475 20,700 2,098 Climbing Los Angeles Center
Thu 09:05:12 PM 34.2783 -117.8217 56° Northeast 431 496 22,900 2,244 Climbing Los Angeles Center
Thu 09:06:14 PM 34.3639 -117.6692 56° Northeast 449 517 25,300 1,872 Climbing Los Angeles Center
Thu 09:07:17 PM 34.4275 -117.5594 55° Northeast 460 529 26,800 1,935 Climbing Los Angeles Center
Thu 09:08:18 PM 34.5294 -117.4144 49° Northeast 473 544 29,300 2,146 Climbing Los Angeles Center
Thu 09:09:20 PM 34.6161 -117.2922 49° Northeast 479 551 31,200 2,081 Climbing Los Angeles Center
Thu 09:10:22 PM 34.7019 -117.1700 49° Northeast 481 554 33,600 1,984 Climbing Los Angeles Center
Thu 09:11:24 PM 34.7864 -117.0483 50° Northeast 476 548 35,300 1,742 Climbing Los Angeles Center
Thu 09:12:26 PM 34.8719 -116.9261 50° Northeast 477 549 37,200 1,742 Climbing Los Angeles Center
Thu 09:13:28 PM 34.9739 -116.7792 50° Northeast 476 548 38,900 1,065 Climbing Los Angeles Center
Thu 09:14:30 PM 35.0617 -116.6550 49° Northeast 483 556 39,400 484 Climbing Los Angeles Center
Thu 09:15:32 PM 35.1503 -116.5250 50° Northeast 495 570 39,900 532 Climbing Los Angeles Center
Thu 09:16:34 PM 35.2389 -116.3978 50° Northeast 495 570 40,500 484 Climbing Los Angeles Center
Thu 09:17:36 PM 35.3278 -116.2697 50° Northeast 495 570 40,900 265 Climbing Los Angeles Center
Thu 09:18:50 PM 35.4508 -116.0856 51° Northeast 500 575 41,100 88 Climbing Los Angeles Center
Thu 09:19:52 PM 35.5414 -115.9558 49° Northeast 501 577 41,100  Level Los Angeles Center
Thu 09:20:54 PM 35.6069 -115.8125 61° Northeast 499 574 41,100  Level Los Angeles Center
Thu 09:21:56 PM 35.6594 -115.6511 68° East 507 583 41,100  Level Los Angeles Center
Thu 09:22:58 PM 35.7233 -115.4619 67° East 504 580 41,100  Level Los Angeles Center
Thu 09:23:59 PM 35.7764 -115.3025 68° East 506 582 41,100  Level Los Angeles Center
Thu 09:25:02 PM 35.8267 -115.1439 69° East 501 577 41,100  Level Los Angeles Center
Thu 09:26:04 PM 35.8797 -114.9853 68° East 503 579 41,100  Level Los Angeles Center
Thu 09:27:06 PM 35.9311 -114.8253 68° East 505 581 41,100  Level Los Angeles Center
Thu 09:28:07 PM 35.9819 -114.6667 68° East 501 577 41,100  Level Los Angeles Center
Thu 09:29:09 PM 36.0450 -114.4739 68° East 504 580 41,100  Level Los Angeles Center
Thu 09:30:11 PM 36.0956 -114.3111 69° East 508 585 41,100  Level Los Angeles Center
Thu 09:31:13 PM 36.1469 -114.1500 68° East 506 582 41,100  Level Los Angeles Center
Thu 09:32:15 PM 36.1989 -113.9883 68° East 506 582 41,100  Level Los Angeles Center
Thu 09:33:17 PM 36.2506 -113.8256 68° East 507 583 41,100  Level Los Angeles Center
Thu 09:34:19 PM 36.3017 -113.6625 69° East 509 586 41,100  Level Los Angeles Center
Thu 09:35:21 PM 36.3622 -113.4669 69° East 507 583 41,100  Level Los Angeles Center
Thu 09:36:23 PM 36.4125 -113.3050 69° East 505 581 41,100  Level Los Angeles Center
Thu 09:37:25 PM 36.4606 -113.1464 69° East 505 581 41,100  Level Los Angeles Center
Thu 09:38:27 PM 36.5108 -112.9853 69° East 504 580 41,100  Level Los Angeles Center
Thu 09:39:29 PM 36.5597 -112.8222 69° East 506 582 41,100  Level Los Angeles Center
Thu 09:40:30 PM 36.6192 -112.6281 69° East 504 580 41,100  Level Los Angeles Center
Thu 09:41:32 PM 36.6686 -112.4639 69° East 507 583 41,100  Level Los Angeles Center
Thu 09:42:34 PM 36.7172 -112.3025 69° East 504 580 41,100  Level Los Angeles Center
Thu 09:43:36 PM 36.7653 -112.1389 70° East 504 580 41,100  Level Los Angeles Center
Thu 09:44:38 PM 36.8136 -111.9753 70° East 505 581 41,100  Level Los Angeles Center
Thu 09:45:40 PM 36.8619 -111.8108 70° East 506 582 41,100  Level Los Angeles Center
Thu 09:46:42 PM 36.9192 -111.6139 70° East 506 582 41,100  Level Los Angeles Center
Thu 09:47:31 PM 36.9564 -111.4828 70° East 505 581 41,100  Level Denver Center
Thu 09:48:33 PM 37.0044 -111.3181 70° East 506 582 41,100  Level Denver Center
Thu 09:49:35 PM 37.0514 -111.1547 70° East 502 578 41,100  Level Denver Center
Thu 09:50:37 PM 37.0983 -110.9917 70° East 500 575 41,100  Level Denver Center
Thu 09:51:39 PM 37.1456 -110.8275 70° East 502 578 41,100  Level Denver Center
Thu 09:52:41 PM 37.1942 -110.6258 73° East 505 581 41,100  Level Denver Center
Thu 09:53:43 PM 37.2369 -110.4564 72° East 510 587 41,100  Level Denver Center
Thu 09:54:45 PM 37.2775 -110.2869 73° East 509 586 41,100  Level Denver Center
Thu 09:55:47 PM 37.3222 -110.1078 73° East 511 588 41,100  Level Denver Center
Thu 09:56:49 PM 37.3619 -109.9447 73° East 510 587 41,100  Level Denver Center
Thu 09:57:51 PM 37.4075 -109.7528 73° East 512 589 41,100  Level Denver Center
Thu 09:58:53 PM 37.4472 -109.5900 73° East 508 585 41,100  Level Denver Center
Thu 09:59:55 PM 37.4925 -109.3992 73° East 508 585 41,100  Level Denver Center
Thu 10:00:57 PM 37.5325 -109.2336 73° East 514 592 41,100  Level Denver Center
Thu 10:01:59 PM 37.5767 -109.0431 74° East 510 587 41,100  Level Denver Center
Thu 10:03:01 PM 37.6150 -108.8778 74° East 512 589 41,100  Level Denver Center
Thu 10:04:03 PM 37.6594 -108.6842 74° East 513 590 41,100  Level Denver Center
Thu 10:05:05 PM 37.6967 -108.5181 74° East 513 590 41,100  Level Denver Center
Thu 10:06:07 PM 37.7347 -108.3517 74° East 513 590 41,100  Level Denver Center
Thu 10:07:09 PM 37.7781 -108.1589 74° East 512 589 41,100  Level Denver Center
Thu 10:08:12 PM 37.8158 -107.9936 74° East 513 590 41,100  Level Denver Center
Thu 10:09:14 PM 37.8589 -107.7981 74° East 516 594 41,100  Level Denver Center
Thu 10:10:16 PM 37.8956 -107.6317 74° East 513 590 41,100  Level Denver Center
Thu 10:11:18 PM 37.9383 -107.4369 74° East 514 592 41,100  Level Denver Center
Thu 10:12:20 PM 37.9742 -107.2731 74° East 508 585 41,100  Level Denver Center
Thu 10:13:22 PM 38.0158 -107.0753 75° East 507 583 41,100  Level Denver Center
Thu 10:14:24 PM 38.0517 -106.9086 75° East 511 588 41,100  Level Denver Center
Thu 10:15:26 PM 38.0869 -106.7439 75° East 506 582 41,100  Level Denver Center
Thu 10:16:28 PM 38.1281 -106.5500 75° East 511 588 41,100  Level Denver Center
Thu 10:17:30 PM 38.1647 -106.3667 76° East 510 587 41,100  Level Denver Center
Thu 10:18:32 PM 38.2017 -106.1911 75° East 514 592 41,100  Level Denver Center
Thu 10:19:34 PM 38.2361 -106.0228 75° East 515 593 41,100  Level Denver Center
Thu 10:20:36 PM 38.2758 -105.8264 75° East 514 592 41,100  Level Denver Center
Thu 10:21:38 PM 38.3092 -105.6569 76° East 514 592 41,100 -48 Level Denver Center
Thu 10:22:40 PM 38.3453 -105.4767 76° East 516 594 41,000  Descending Denver Center
Thu 10:23:42 PM 38.3806 -105.3003 76° East 516 594 41,100 48 Climbing Denver Center
Thu 10:24:44 PM 38.4217 -105.0864 76° East 521 600 41,100  Level Denver Center
Thu 10:25:45 PM 38.4569 -104.9114 76° East 516 594 41,100  Level Denver Center
Thu 10:26:47 PM 38.4903 -104.7369 76° East 511 588 41,100  Level Denver Center
Thu 10:27:49 PM 38.5239 -104.5606 76° East 513 590 41,100  Level Denver Center
Thu 10:28:51 PM 38.5572 -104.3833 76° East 516 594 41,100  Level Denver Center
Thu 10:29:53 PM 38.5903 -104.2075 76° East 515 593 41,100  Level Denver Center
Thu 10:30:55 PM 38.6264 -104.0133 77° East 511 588 41,100  Level Denver Center
Thu 10:31:56 PM 38.6633 -103.8122 77° East 518 596 41,100  Level Denver Center
Thu 10:32:58 PM 38.6944 -103.6417 77° East 515 593 41,100  Level Denver Center
Thu 10:34:00 PM 38.7300 -103.4428 77° East 513 590 41,100  Level Denver Center
Thu 10:35:01 PM 38.7572 -103.2872 77° East 516 594 41,100  Level Denver Center
Thu 10:36:03 PM 38.7894 -103.1094 77° East 516 594 41,100  Level Denver Center
Thu 10:37:05 PM 38.8267 -102.8933 77° East 519 597 41,100  Level Denver Center
Thu 10:38:07 PM 38.8542 -102.7322 78° East 520 598 41,100  Level Denver Center
Thu 10:39:08 PM 38.8900 -102.5283 77° East 523 602 41,100  Level Denver Center
Thu 10:40:10 PM 38.9192 -102.3528 78° East 523 602 41,100  Level Denver Center
Thu 10:41:12 PM 38.9539 -102.1492 78° East 523 602 41,100  Level Denver Center
Thu 10:42:13 PM 38.9833 -101.9750 78° East 521 600 41,100  Level Denver Center
Thu 10:43:15 PM 39.0169 -101.7700 78° East 523 602 41,100  Level Denver Center
Thu 10:44:16 PM 39.0469 -101.5886 78° East 523 602 41,100  Level Denver Center
Thu 10:45:18 PM 39.0739 -101.4139 79° East 523 602 41,100  Level Denver Center
Thu 10:46:20 PM 39.1072 -101.2092 78° East 524 603 41,100  Level Denver Center
Thu 10:47:21 PM 39.1342 -101.0344 79° East 523 602 41,100  Level Denver Center
Thu 10:48:23 PM 39.1611 -100.8586 79° East 524 603 41,100  Level Denver Center
Thu 10:49:24 PM 39.1936 -100.6550 78° East 522 601 41,100  Level Denver Center
Thu 10:50:26 PM 39.2206 -100.4769 79° East 527 606 41,100  Level Denver Center
Thu 10:51:27 PM 39.2517 -100.2725 79° East 524 603 41,100  Level Denver Center
Thu 10:52:29 PM 39.2772 -100.0956 79° East 525 604 41,100  Level Denver Center
Thu 10:53:30 PM 39.3083 -99.8872 79° East 529 609 41,100  Level Denver Center
Thu 10:54:32 PM 39.3339 -99.7069 80° East 532 612 41,100  Level Denver Center
Thu 10:55:58 PM 39.3731 -99.4361 79° East 535 616 41,100  Level Denver Center
Thu 10:56:59 PM 39.3986 -99.2561 80° East 532 612 41,100  Level Denver Center
Thu 10:58:00 PM 39.4281 -99.0431 80° East 538 619 41,100  Level Denver Center
Thu 10:59:01 PM 39.4550 -98.8506 80° East 536 617 41,100  Level Denver Center
Thu 11:00:11 PM 39.4861 -98.6225 80° East 536 617 41,100  Level Kansas City Center
Thu 11:01:12 PM 39.5072 -98.4642 80° East 536 617 41,100  Level Kansas City Center
Thu 11:02:13 PM 39.5328 -98.2719 80° East 539 620 41,100  Level Kansas City Center
Thu 11:03:14 PM 39.5575 -98.0817 80° East 539 620 41,100  Level Kansas City Center
Thu 11:04:15 PM 39.5864 -97.8603 80° East 541 623 41,100  Level Kansas City Center
Thu 11:05:16 PM 39.6103 -97.6700 81° East 538 619 41,100  Level Kansas City Center
Thu 11:06:17 PM 39.6344 -97.4803 81° East 536 617 41,100  Level Kansas City Center
Thu 11:07:17 PM 39.6569 -97.2906 81° East 534 615 41,100  Level Kansas City Center
Thu 11:08:18 PM 39.6836 -97.0847 80° East 540 621 41,100  Level Kansas City Center
Thu 11:09:19 PM 39.7075 -96.8894 81° East 546 628 41,100  Level Kansas City Center
Thu 11:10:20 PM 39.7281 -96.7075 82° East 545 627 41,100  Level Kansas City Center
Thu 11:11:21 PM 39.7539 -96.4867 81° East 551 634 41,100  Level Kansas City Center
Thu 11:12:22 PM 39.7761 -96.2978 81° East 552 635 41,100  Level Kansas City Center
Thu 11:13:23 PM 39.7972 -96.1069 82° East 555 639 41,100  Level Kansas City Center
Thu 11:14:24 PM 39.8225 -95.8836 82° East 556 640 41,100  Level Kansas City Center
Thu 11:15:25 PM 39.8422 -95.6931 82° East 555 639 41,100  Level Kansas City Center
Thu 11:16:26 PM 39.8625 -95.5022 82° East 554 638 41,100  Level Kansas City Center
Thu 11:17:27 PM 39.8858 -95.2806 82° East 552 635 41,100  Level Kansas City Center
Thu 11:18:28 PM 39.9056 -95.0878 82° East 551 634 41,100  Level Kansas City Center
Thu 11:19:28 PM 39.9253 -94.8997 82° East 553 636 41,100  Level Kansas City Center
Thu 11:20:29 PM 39.9481 -94.6772 82° East 552 635 41,100  Level Kansas City Center
Thu 11:21:30 PM 39.9661 -94.4867 83° East 553 636 41,100  Level Kansas City Center
Thu 11:22:31 PM 39.9833 -94.2956 83° East 553 636 41,100  Level Kansas City Center
Thu 11:23:32 PM 40.0044 -94.0803 83° East 552 635 41,100  Level Kansas City Center
Thu 11:24:33 PM 40.0256 -93.9053 81° East 556 640 41,100  Level Kansas City Center
Thu 11:25:34 PM 40.0656 -93.6744 77° East 551 634 41,100  Level Kansas City Center
Thu 11:26:35 PM 40.1022 -93.4828 76° East 549 632 41,100  Level Kansas City Center
Thu 11:27:36 PM 40.1553 -93.2992 69° East 546 628 41,100  Level Kansas City Center
Thu 11:28:37 PM 40.2083 -93.1303 68° East 543 625 41,100  Level Kansas City Center
Thu 11:29:37 PM 40.2717 -92.9236 68° East 546 628 41,100  Level Kansas City Center
Thu 11:30:38 PM 40.3253 -92.7472 68° East 546 628 41,100  Level Kansas City Center
Thu 11:31:39 PM 40.3789 -92.5544 70° East 547 629 41,100  Level Kansas City Center
Thu 11:32:40 PM 40.4386 -92.3700 67° East 548 631 41,100  Level Kansas City Center
Thu 11:33:41 PM 40.4947 -92.1797 69° East 548 631 41,100  Level Kansas City Center
Thu 11:34:42 PM 40.5481 -91.9939 69° East 547 629 41,100 -50 Level Kansas City Center
Thu 11:35:42 PM 40.5986 -91.8153 70° East 539 620 41,000 -50 Descending Kansas City Center
Thu 11:36:43 PM 40.6536 -91.6325 68° East 535 616 41,000 -541 Level Kansas City Center
Thu 11:37:44 PM 40.7064 -91.4503 69° East 534 615 39,900 -1,525 Descending Kansas City Center
Thu 11:38:45 PM 40.7589 -91.2642 70° East 538 619 37,900 -1,967 Descending Kansas City Center
Thu 11:39:46 PM 40.8097 -91.0836 70° East 532 612 35,900 -1,918 Descending Kansas City Center
Thu 11:40:47 PM 40.8614 -90.9033 69° East 527 606 34,000 -1,686 Descending Kansas City Center
Thu 11:41:47 PM 40.9122 -90.7189 70° East 530 610 32,500 -1,636 Descending Kansas City Center
Thu 11:42:48 PM 40.9611 -90.5417 70° East 518 596 30,700 -2,239 Descending Kansas City Center
Thu 11:44:09 PM 41.0297 -90.2922 70° East 518 596 27,200 -2,197 Descending Chicago Center
Thu 11:45:10 PM 41.0761 -90.1211 70° East 493 567 25,500 -1,756 Descending Chicago Center
Thu 11:46:12 PM 41.1206 -89.9567 70° East 473 544 23,600 -1,686 Descending Chicago Center
Thu 11:47:11 PM 41.1636 -89.7981 70° East 458 527 22,100 -1,500 Descending Chicago Center
Thu 11:48:12 PM 41.2031 -89.6417 71° East 447 514 20,600 -1,377 Descending Chicago Center
Thu 11:49:13 PM 41.2242 -89.4775 80° East 447 514 19,300 -1,339 Descending Chicago Center
Thu 11:50:13 PM 41.2494 -89.3194 78° East 440 506 17,900 -1,190 Descending Chicago Center
Thu 11:51:14 PM 41.2811 -89.1597 75° East 422 486 16,900 -1,131 Descending Chicago Center
Thu 11:52:15 PM 41.3092 -89.0164 75° East 407 468 15,600 -1,328 Descending Chicago Center
Thu 11:53:16 PM 41.3400 -88.8786 73° East 396 456 14,200 -1,537 Descending Chicago Center
Thu 11:54:16 PM 41.3714 -88.7453 73° East 384 442 12,500 -1,835 Descending Chicago Center
Thu 11:55:17 PM 41.4047 -88.6128 71° East 380 437 10,500 -1,230 Descending Chicago Center
Thu 11:56:18 PM 41.4531 -88.5017 60° Northeast 348 400 10,000 -248 Descending Chicago Center
Thu 11:57:18 PM 41.4789 -88.3719 75° East 359 413 10,000 -198 Level Chicago Center
Thu 11:58:19 PM 41.5000 -88.2550 76° East 318 366 9,600 -992 Descending Chicago Center
Thu 11:59:19 PM 41.5206 -88.1467 76° East 299 344 8,000 -1,636 Descending Chicago Center
Fri 12:00:20 AM 41.5431 -88.0386 74° East 299 344 6,300 -1,574 Descending Chicago Center
Fri 12:01:21 AM 41.5639 -87.9350 75° East 292 336 4,800 -1,488 Descending Chicago Center
Fri 12:02:21 AM 41.5864 -87.8364 73° East 284 327 3,300 -1,140 Descending Chicago Center
Fri 12:03:22 AM 41.6081 -87.7406 73° East 277 319 2,500 -397 Descending Chicago Center
Fri 12:04:22 AM 41.6389 -87.6567 64° Northeast 261 300 2,500  Level Chicago Center
Fri 12:05:23 AM 41.6822 -87.6350 20° North 211 243 2,500  Level Chicago Center
Fri 12:06:23 AM 41.7222 -87.6578 337° Northwest 177 204 2,500 -446 Level Chicago Center
Fri 12:07:24 AM 41.7494 -87.7025 309° West 144 166 1,600 -744 Descending Chicago Center
Fri 12:08:24 AM 41.7714 -87.7339 313° West 128 147 1,000 -600 Descending Chicago Center

Login

Don't have an account? Register now (free) for customized features, flight alerts, and more!